Airfield :
LOGIN :

Register | Disclaimer

   EN    FR    IT 

 










Legend :    VFR   Marginal VFR   IFR   Intensive IFR   Very Intensive IFR
Visi :
Ceiling :
>= 8 km
>= 3000ft
5 to 8 km
1000 to 3000 ft
1500m to 5 km
500 to 1000 ft
800 to 1500m
200 to 500 ft
< 800m
< 200 ft
Symbols :   Thunderstorms  Fog  Heavy snow  Heavy precipitations  Wind > 20 kt
SIGMETs :     Misc.  Thunderstorms  Icing  Turbulence  Mountain Waves  Volcanic Ashes






- Airport Elevation : 245 ft
- IATA code : BIQ


LFBZ - Biarritz

CURRENT METAR :
  • 011400Z AUTO 01004KT 340V040 9999 OVC009 06/05 Q1021 BECMG BKN015

EXPIRED METARs :
  • 011330Z AUTO VRB03KT 9999 OVC009 06/05 Q1021 BECMG BKN015
  • 011300Z AUTO 01003KT 340V060 9999 OVC009 06/05 Q1021 NOSIG
  • 011230Z AUTO 28003KT 190V320 9999 OVC010 06/05 Q1021 NOSIG
  • 011200Z AUTO 36004KT 9999 OVC009 07/05 Q1021 NOSIG
  • 011130Z AUTO VRB03KT 9999 OVC008 06/05 Q1022 NOSIG
  • 011100Z AUTO VRB01KT 9999 OVC006 06/05 Q1022 NOSIG

TAF TAF LFBZ
Valid from the 01 at 12:00 until the 02 at 12:00 UTC


011100Z 0112/0212 06005KT 9999 OVC005
BECMG 0115/0117 BKN015
BECMG 0122/0124 CAVOK
PROB40 0202/0208 3000 BR
PROB30 0204/0207 0400 FG VV///



MET'MAP, your aeronautical weather chart ! - Copyright ORBIFLY December 2007 - Disclaimer

ORBIFLY MET'MAP TEAM :

Programming & Development : Alexandra Zaïnal
Original concept : Baudouin d'Aumeries
Technical & hardware support : Manuel Goepfert
Assistance : Marc-Olivier Méhu




SOURCES & CREDITS :

   NOAA